createdAt,value
2018-06-09T00:00:52.063Z,21.62
2018-06-09T00:01:51.990Z,21.59
2018-06-09T00:02:51.914Z,21.58
2018-06-09T00:03:51.840Z,21.62
2018-06-09T00:04:51.765Z,21.59
2018-06-09T00:05:51.688Z,21.62
2018-06-09T00:06:51.613Z,21.62
2018-06-09T00:07:51.526Z,21.62
2018-06-09T00:08:51.451Z,21.59
2018-06-09T00:09:51.376Z,21.59
2018-06-09T00:10:51.301Z,21.68
2018-06-09T00:11:51.226Z,21.64
2018-06-09T00:12:51.151Z,21.62
2018-06-09T00:13:51.076Z,21.62
2018-06-09T00:14:51.001Z,21.65
2018-06-09T00:15:50.943Z,21.62
2018-06-09T00:16:50.851Z,21.56
2018-06-09T00:17:50.777Z,21.58
2018-06-09T00:18:50.702Z,21.49
2018-06-09T00:19:50.644Z,21.50
2018-06-09T00:20:50.552Z,21.50
2018-06-09T00:21:50.481Z,21.43
2018-06-09T00:22:50.403Z,21.49
2018-06-09T00:23:50.328Z,21.46
2018-06-09T00:24:50.252Z,21.42
2018-06-09T00:25:50.178Z,21.37
2018-06-09T00:26:50.103Z,21.38
2018-06-09T00:27:50.022Z,21.27
2018-06-09T00:28:49.942Z,21.21
2018-06-09T00:29:49.866Z,21.29
2018-06-09T00:30:49.792Z,21.29
2018-06-09T00:31:49.719Z,21.29
2018-06-09T00:32:49.642Z,21.19
2018-06-09T00:33:49.567Z,21.22
2018-06-09T00:34:49.497Z,21.17
2018-06-09T00:35:49.448Z,21.07
2018-06-09T00:36:49.342Z,21.01
2018-06-09T00:37:49.267Z,21.03
2018-06-09T00:38:49.191Z,20.99
2018-06-09T00:39:49.118Z,20.99
2018-06-09T00:40:49.043Z,20.95
2018-06-09T00:41:48.967Z,20.95
2018-06-09T00:42:48.881Z,20.97
2018-06-09T00:43:48.805Z,20.99
2018-06-09T00:44:48.730Z,20.84
2018-06-09T00:45:48.655Z,20.88
2018-06-09T00:46:48.583Z,20.88
2018-06-09T00:47:48.518Z,20.84
2018-06-09T00:48:48.430Z,20.77
2018-06-09T00:49:48.356Z,20.70
2018-06-09T00:50:48.280Z,20.79
2018-06-09T00:51:48.220Z,20.79
2018-06-09T00:52:48.130Z,20.72
2018-06-09T00:53:48.056Z,20.70
2018-06-09T00:54:47.984Z,20.70
2018-06-09T00:55:47.895Z,20.76
2018-06-09T00:56:47.819Z,20.70
2018-06-09T00:57:47.744Z,20.64
2018-06-09T00:58:47.670Z,20.64
2018-06-09T00:59:47.604Z,20.59
2018-06-09T01:00:47.520Z,20.74
2018-06-09T01:01:47.445Z,20.76
2018-06-09T01:02:47.370Z,20.73
2018-06-09T01:03:47.298Z,20.72
2018-06-09T01:04:47.220Z,20.70
2018-06-09T01:05:47.148Z,20.80
2018-06-09T01:06:47.071Z,20.76
2018-06-09T01:07:46.983Z,20.72
2018-06-09T01:08:46.907Z,20.69
2018-06-09T01:09:46.834Z,20.85
2018-06-09T01:10:46.757Z,20.80
2018-06-09T01:11:46.683Z,20.76
2018-06-09T01:12:46.608Z,20.84
2018-06-09T01:13:46.533Z,20.70
2018-06-09T01:14:46.459Z,20.70
2018-06-09T01:15:46.396Z,20.70
2018-06-09T01:16:46.308Z,20.72
2018-06-09T01:17:46.234Z,20.74
2018-06-09T01:18:46.159Z,20.74
2018-06-09T01:19:46.072Z,20.76
2018-06-09T01:20:45.997Z,20.70
2018-06-09T01:21:45.922Z,20.73
2018-06-09T01:22:45.859Z,20.73
2018-06-09T01:23:45.772Z,20.73
2018-06-09T01:24:45.698Z,20.70
2018-06-09T01:25:45.627Z,20.85
2018-06-09T01:26:45.548Z,20.88
2018-06-09T01:27:45.474Z,20.87
2018-06-09T01:28:45.385Z,20.92
2018-06-09T01:29:45.310Z,20.89
2018-06-09T01:30:45.235Z,20.85
2018-06-09T01:31:45.162Z,20.91
2018-06-09T01:32:45.085Z,20.85
2018-06-09T01:33:45.014Z,20.85
2018-06-09T01:34:44.935Z,20.80
2018-06-09T01:35:44.861Z,20.77
2018-06-09T01:36:44.785Z,20.84
2018-06-09T01:37:44.711Z,20.84
2018-06-09T01:38:44.624Z,20.84
2018-06-09T01:39:44.550Z,20.82
2018-06-09T01:40:44.474Z,20.69
2018-06-09T01:41:44.398Z,20.74
2018-06-09T01:42:44.323Z,20.77
2018-06-09T01:43:44.248Z,20.72
2018-06-09T01:44:44.174Z,20.70
2018-06-09T01:45:44.098Z,20.82
2018-06-09T01:46:44.024Z,20.82
2018-06-09T01:47:43.937Z,20.80
2018-06-09T01:48:43.861Z,20.92
2018-06-09T01:49:43.785Z,20.85
2018-06-09T01:50:43.711Z,20.87
2018-06-09T01:51:43.635Z,20.89
2018-06-09T01:52:43.560Z,20.82
2018-06-09T01:53:43.498Z,20.77
2018-06-09T01:54:43.410Z,20.74
2018-06-09T01:55:43.336Z,20.76
2018-06-09T01:56:43.260Z,20.73
2018-06-09T01:57:43.174Z,20.74
2018-06-09T01:58:43.099Z,20.74
2018-06-09T01:59:43.024Z,20.69
2018-06-09T02:00:42.950Z,20.76
2018-06-09T02:01:42.875Z,20.66
2018-06-09T02:02:42.799Z,20.70
2018-06-09T02:03:42.725Z,20.62
2018-06-09T02:04:42.650Z,20.54
2018-06-09T02:05:42.576Z,20.55
2018-06-09T02:06:42.500Z,20.59
2018-06-09T02:07:42.420Z,20.54
2018-06-09T02:08:42.338Z,20.52
2018-06-09T02:09:42.262Z,20.50
2018-06-09T02:10:42.200Z,20.50
2018-06-09T02:11:42.113Z,20.51
2018-06-09T02:12:42.038Z,20.51
2018-06-09T02:13:41.963Z,20.47
2018-06-09T02:14:41.905Z,20.38
2018-06-09T02:15:41.805Z,20.39
2018-06-09T02:16:41.726Z,20.31
2018-06-09T02:17:41.652Z,20.28
2018-06-09T02:18:41.578Z,20.16
2018-06-09T02:19:41.503Z,20.24
2018-06-09T02:20:41.427Z,20.31
2018-06-09T02:21:41.351Z,20.16
2018-06-09T02:22:41.277Z,20.28
2018-06-09T02:23:41.203Z,20.14
2018-06-09T02:24:41.113Z,20.16
2018-06-09T02:25:41.039Z,20.14
2018-06-09T02:26:40.964Z,20.18
2018-06-09T02:27:40.903Z,20.13
2018-06-09T02:28:40.818Z,20.20
2018-06-09T02:29:40.742Z,20.20
2018-06-09T02:30:40.666Z,20.16
2018-06-09T02:31:40.578Z,20.28
2018-06-09T02:32:40.503Z,20.28
2018-06-09T02:33:40.428Z,20.17
2018-06-09T02:34:40.355Z,20.24
2018-06-09T02:35:40.283Z,20.18
2018-06-09T02:36:40.204Z,20.14
2018-06-09T02:37:40.130Z,20.17
2018-06-09T02:38:40.054Z,20.18
2018-06-09T02:39:39.967Z,20.20
2018-06-09T02:40:39.891Z,20.16
2018-06-09T02:41:39.816Z,20.18
2018-06-09T02:42:39.742Z,20.06
2018-06-09T02:43:39.668Z,19.98
2018-06-09T02:44:39.591Z,20.14
2018-06-09T02:45:39.516Z,20.13
2018-06-09T02:46:39.442Z,20.02
2018-06-09T02:47:39.355Z,20.02
2018-06-09T02:48:39.285Z,20.08
2018-06-09T02:49:39.205Z,20.14
2018-06-09T02:50:39.131Z,20.08
2018-06-09T02:51:39.060Z,20.03
2018-06-09T02:52:38.990Z,20.10
2018-06-09T02:53:38.907Z,20.06
2018-06-09T02:54:38.832Z,20.03
2018-06-09T02:55:38.744Z,19.98
2018-06-09T02:56:38.682Z,20.10
2018-06-09T02:57:38.593Z,20.10
2018-06-09T02:58:38.518Z,20.08
2018-06-09T02:59:38.457Z,20.05
2018-06-09T03:00:38.382Z,20.13
2018-06-09T03:01:38.294Z,20.03
2018-06-09T03:02:38.208Z,20.06
2018-06-09T03:03:38.132Z,20.03
2018-06-09T03:04:38.057Z,20.14
2018-06-09T03:05:37.983Z,19.99
2018-06-09T03:06:37.908Z,20.06
2018-06-09T03:07:37.835Z,20.05
2018-06-09T03:08:37.760Z,20.02
2018-06-09T03:09:37.671Z,20.03
2018-06-09T03:10:37.595Z,20.05
2018-06-09T03:11:37.519Z,19.98
2018-06-09T03:12:37.445Z,19.95
2018-06-09T03:13:37.370Z,19.98
2018-06-09T03:14:37.296Z,19.99
2018-06-09T03:15:37.234Z,19.99
2018-06-09T03:16:37.149Z,20.01
2018-06-09T03:17:37.062Z,19.96
2018-06-09T03:18:36.984Z,19.95
2018-06-09T03:19:36.909Z,19.95
2018-06-09T03:20:36.833Z,19.95
2018-06-09T03:21:36.761Z,19.92
2018-06-09T03:22:36.684Z,19.88
2018-06-09T03:23:36.609Z,19.84
2018-06-09T03:24:36.535Z,19.86
2018-06-09T03:25:36.447Z,19.92
2018-06-09T03:26:36.372Z,19.87
2018-06-09T03:27:36.296Z,19.83
2018-06-09T03:28:36.235Z,19.84
2018-06-09T03:29:36.147Z,19.87
2018-06-09T03:30:36.073Z,19.77
2018-06-09T03:31:35.985Z,19.86
2018-06-09T03:32:35.954Z,19.86
2018-06-09T03:33:35.836Z,19.86
2018-06-09T03:34:35.767Z,19.81
2018-06-09T03:35:35.704Z,19.91
2018-06-09T03:36:35.612Z,19.87
2018-06-09T03:37:35.536Z,19.88
2018-06-09T03:38:35.462Z,19.91
2018-06-09T03:39:35.374Z,19.91
2018-06-09T03:40:35.298Z,19.96
2018-06-09T03:41:35.237Z,19.91
2018-06-09T03:42:35.149Z,19.95
2018-06-09T03:43:35.075Z,19.96
2018-06-09T03:44:34.999Z,19.94
2018-06-09T03:45:34.926Z,19.95
2018-06-09T03:46:34.837Z,19.96
2018-06-09T03:47:34.762Z,19.96
2018-06-09T03:48:34.688Z,19.98
2018-06-09T03:49:34.616Z,20.13
2018-06-09T03:50:34.551Z,20.01
2018-06-09T03:51:34.472Z,20.05
2018-06-09T03:52:34.388Z,20.06
2018-06-09T03:53:34.302Z,20.10
2018-06-09T03:54:34.238Z,20.13
2018-06-09T03:55:34.149Z,20.14
2018-06-09T03:56:34.075Z,20.20
2018-06-09T03:57:34.000Z,20.23
2018-06-09T03:58:33.925Z,20.18
2018-06-09T03:59:33.850Z,20.28
2018-06-09T04:00:33.778Z,20.26
2018-06-09T04:01:33.689Z,20.28
2018-06-09T04:02:33.613Z,20.20
2018-06-09T04:03:33.539Z,20.28
2018-06-09T04:04:33.464Z,20.28
2018-06-09T04:05:33.389Z,20.29
2018-06-09T04:06:33.314Z,20.31
2018-06-09T04:07:33.239Z,20.32
2018-06-09T04:08:33.154Z,20.26
2018-06-09T04:09:33.076Z,20.38
2018-06-09T04:10:33.002Z,20.39
2018-06-09T04:11:32.927Z,20.31
2018-06-09T04:12:32.851Z,20.31
2018-06-09T04:13:32.777Z,20.39
2018-06-09T04:14:32.702Z,20.35
2018-06-09T04:15:32.644Z,20.38
2018-06-09T04:16:32.554Z,20.38
2018-06-09T04:17:32.466Z,20.38
2018-06-09T04:18:32.391Z,20.48
2018-06-09T04:19:32.316Z,20.43
2018-06-09T04:20:32.246Z,20.43
2018-06-09T04:21:32.166Z,20.41
2018-06-09T04:22:32.091Z,20.62
2018-06-09T04:23:32.016Z,20.55
2018-06-09T04:24:31.940Z,20.64
2018-06-09T04:25:31.854Z,20.58
2018-06-09T04:26:31.778Z,20.70
2018-06-09T04:27:31.704Z,20.79
2018-06-09T04:28:31.629Z,20.74
2018-06-09T04:29:31.566Z,20.82
2018-06-09T04:30:31.478Z,20.84
2018-06-09T04:31:31.404Z,20.95
2018-06-09T04:32:31.341Z,20.95
2018-06-09T04:33:31.254Z,21.07
2018-06-09T04:34:31.168Z,21.21
2018-06-09T04:35:31.104Z,21.27
2018-06-09T04:36:31.018Z,21.62
2018-06-09T04:37:30.947Z,22.06
2018-06-09T04:38:30.868Z,22.43
2018-06-09T04:39:30.793Z,22.76
2018-06-09T04:40:30.719Z,22.97
2018-06-09T04:41:30.644Z,23.28
2018-06-09T04:42:30.569Z,23.47
2018-06-09T04:43:30.494Z,23.65
2018-06-09T04:44:30.418Z,23.95
2018-06-09T04:45:30.344Z,24.03
2018-06-09T04:46:30.257Z,24.24
2018-06-09T04:47:30.182Z,24.34
2018-06-09T04:48:30.110Z,24.49
2018-06-09T04:49:30.034Z,24.68
2018-06-09T04:50:29.956Z,24.83
2018-06-09T04:51:29.883Z,24.98
2018-06-09T04:52:29.807Z,25.05
2018-06-09T04:53:29.732Z,24.91
2018-06-09T04:54:29.657Z,25.06
2018-06-09T04:55:29.582Z,25.08
2018-06-09T04:56:29.507Z,25.00
2018-06-09T04:57:29.432Z,24.77
2018-06-09T04:58:29.372Z,24.47
2018-06-09T04:59:29.283Z,24.27
2018-06-09T05:00:29.209Z,24.09
2018-06-09T05:01:29.146Z,23.88
2018-06-09T05:02:29.071Z,23.88
2018-06-09T05:03:28.997Z,23.76
2018-06-09T05:04:28.921Z,23.83
2018-06-09T05:05:28.846Z,23.65
2018-06-09T05:06:28.771Z,23.51
2018-06-09T05:07:28.697Z,23.39
2018-06-09T05:08:28.622Z,23.40
2018-06-09T05:09:28.547Z,23.32
2018-06-09T05:10:28.473Z,23.19
2018-06-09T05:11:28.397Z,23.15
2018-06-09T05:12:28.322Z,23.12
2018-06-09T05:13:28.247Z,23.05
2018-06-09T05:14:28.174Z,23.04
2018-06-09T05:15:28.098Z,23.00
2018-06-09T05:16:28.028Z,23.01
2018-06-09T05:17:27.948Z,23.07
2018-06-09T05:18:27.895Z,23.02
2018-06-09T05:19:27.800Z,23.07
2018-06-09T05:20:27.725Z,23.02
2018-06-09T05:21:27.649Z,23.00
2018-06-09T05:22:27.573Z,23.05
2018-06-09T05:23:27.499Z,23.02
2018-06-09T05:24:27.428Z,23.02
2018-06-09T05:25:27.349Z,22.98
2018-06-09T05:26:27.274Z,22.97
2018-06-09T05:27:27.199Z,23.10
2018-06-09T05:28:27.124Z,22.97
2018-06-09T05:29:27.049Z,23.02
2018-06-09T05:30:26.974Z,23.17
2018-06-09T05:31:26.901Z,23.13
2018-06-09T05:32:26.824Z,23.13
2018-06-09T05:33:26.750Z,23.10
2018-06-09T05:34:26.686Z,23.19
2018-06-09T05:35:26.603Z,23.19
2018-06-09T05:36:26.526Z,23.27
2018-06-09T05:37:26.454Z,23.32
2018-06-09T05:38:26.389Z,23.28
2018-06-09T05:39:26.301Z,23.28
2018-06-09T05:40:26.226Z,23.20
2018-06-09T05:41:26.162Z,23.32
2018-06-09T05:42:26.088Z,23.38
2018-06-09T05:43:26.013Z,23.39
2018-06-09T05:44:25.938Z,23.47
2018-06-09T05:45:25.863Z,23.50
2018-06-09T05:46:25.788Z,23.57
2018-06-09T05:47:25.726Z,23.51
2018-06-09T05:48:25.638Z,23.58
2018-06-09T05:49:25.588Z,23.66
2018-06-09T05:50:25.488Z,23.65
2018-06-09T05:51:25.416Z,23.65
2018-06-09T05:52:25.338Z,23.63
2018-06-09T05:53:25.264Z,23.68
2018-06-09T05:54:25.192Z,23.73
2018-06-09T05:55:25.116Z,23.66
2018-06-09T05:56:25.041Z,23.83
2018-06-09T05:57:24.978Z,23.70
2018-06-09T05:58:24.889Z,23.66
2018-06-09T05:59:24.816Z,23.69
2018-06-09T06:00:24.740Z,23.72
2018-06-09T06:01:24.678Z,23.75
2018-06-09T06:02:24.590Z,23.78
2018-06-09T06:03:24.556Z,23.73
2018-06-09T06:04:24.444Z,23.72
2018-06-09T06:05:24.366Z,23.84
2018-06-09T06:06:24.290Z,23.79
2018-06-09T06:07:24.215Z,23.85
2018-06-09T06:08:24.184Z,23.88
2018-06-09T06:09:24.066Z,23.87
2018-06-09T06:10:23.991Z,23.80
2018-06-09T06:11:23.916Z,23.85
2018-06-09T06:12:23.841Z,23.94
2018-06-09T06:13:23.769Z,23.94
2018-06-09T06:14:23.695Z,23.91
2018-06-09T06:15:23.621Z,23.93
2018-06-09T06:16:23.543Z,24.06
2018-06-09T06:17:23.468Z,24.05
2018-06-09T06:18:23.404Z,23.94
2018-06-09T06:19:23.331Z,23.94
2018-06-09T06:20:23.255Z,24.00
2018-06-09T06:21:23.180Z,23.95
2018-06-09T06:22:23.105Z,24.06
2018-06-09T06:23:23.030Z,24.09
2018-06-09T06:24:22.958Z,24.16
2018-06-09T06:25:22.880Z,24.21
2018-06-09T06:26:22.806Z,24.22
2018-06-09T06:27:22.731Z,24.32
2018-06-09T06:28:22.656Z,24.30
2018-06-09T06:29:22.594Z,24.22
2018-06-09T06:30:22.505Z,24.34
2018-06-09T06:31:22.436Z,24.37
2018-06-09T06:32:22.356Z,24.49
2018-06-09T06:33:22.285Z,24.50
2018-06-09T06:34:22.206Z,24.43
2018-06-09T06:35:22.131Z,24.57
2018-06-09T06:36:22.068Z,24.62
2018-06-09T06:37:21.993Z,24.61
2018-06-09T06:38:21.918Z,24.67
2018-06-09T06:39:21.844Z,24.73
2018-06-09T06:40:21.769Z,24.73
2018-06-09T06:41:21.693Z,24.73
2018-06-09T06:42:21.619Z,24.81
2018-06-09T06:43:21.545Z,24.83
2018-06-09T06:44:21.469Z,24.83
2018-06-09T06:45:21.394Z,24.76
2018-06-09T06:46:21.320Z,24.90
2018-06-09T06:47:21.247Z,24.87
2018-06-09T06:48:21.183Z,24.81
2018-06-09T06:49:21.108Z,24.84
2018-06-09T06:50:21.093Z,24.87
2018-06-09T06:51:20.958Z,24.96
2018-06-09T06:52:20.883Z,25.15
2018-06-09T06:53:20.811Z,25.10
2018-06-09T06:54:20.733Z,25.09
2018-06-09T06:55:20.661Z,25.14
2018-06-09T06:56:20.584Z,25.24
2018-06-09T06:57:20.509Z,25.24
2018-06-09T06:58:20.446Z,25.25
2018-06-09T06:59:20.372Z,25.28
2018-06-09T07:00:20.296Z,25.33
2018-06-09T07:01:20.225Z,25.51
2018-06-09T07:02:20.145Z,25.62
2018-06-09T07:03:20.071Z,25.65
2018-06-09T07:04:19.997Z,25.77
2018-06-09T07:05:19.934Z,25.76
2018-06-09T07:06:19.849Z,25.92
2018-06-09T07:07:19.785Z,25.87
2018-06-09T07:08:19.710Z,25.94
2018-06-09T07:09:19.635Z,25.97
2018-06-09T07:10:19.561Z,26.07
2018-06-09T07:11:19.485Z,26.06
2018-06-09T07:12:19.410Z,26.10
2018-06-09T07:13:19.347Z,26.25
2018-06-09T07:14:19.272Z,26.35
2018-06-09T07:15:19.198Z,26.39
2018-06-09T07:16:19.123Z,26.48
2018-06-09T07:17:19.048Z,26.55
2018-06-09T07:18:18.986Z,26.55
2018-06-09T07:19:18.912Z,26.44
2018-06-09T07:20:18.836Z,26.55
2018-06-09T07:21:18.762Z,26.57
2018-06-09T07:22:18.688Z,26.76
2018-06-09T07:23:18.626Z,26.91
2018-06-09T07:24:18.562Z,27.03
2018-06-09T07:25:18.477Z,26.94
2018-06-09T07:26:18.399Z,26.95
2018-06-09T07:27:18.325Z,27.24
2018-06-09T07:28:18.265Z,27.24
2018-06-09T07:29:18.188Z,27.37
2018-06-09T07:30:18.113Z,27.59
2018-06-09T07:31:18.063Z,27.65
2018-06-09T07:32:17.975Z,27.69
2018-06-09T07:33:17.900Z,27.87
2018-06-09T07:34:17.824Z,27.85
2018-06-09T07:35:17.763Z,27.92
2018-06-09T07:36:17.689Z,27.81
2018-06-09T07:37:17.614Z,27.93
2018-06-09T07:38:17.550Z,27.96
2018-06-09T07:39:17.475Z,28.09
2018-06-09T07:40:17.413Z,28.15
2018-06-09T07:41:17.327Z,28.41
2018-06-09T07:42:17.264Z,28.59
2018-06-09T07:43:17.189Z,28.61
2018-06-09T07:44:17.126Z,29.04
2018-06-09T07:45:17.051Z,29.27
2018-06-09T07:46:16.978Z,29.87
2018-06-09T07:47:16.915Z,30.55
2018-06-09T07:48:16.840Z,31.01
2018-06-09T07:49:16.781Z,31.14
2018-06-09T07:50:16.703Z,31.19
2018-06-09T07:51:16.641Z,31.26
2018-06-09T07:52:16.577Z,31.07
2018-06-09T07:53:16.502Z,31.39
2018-06-09T07:54:16.441Z,30.99
2018-06-09T07:55:16.365Z,30.80
2018-06-09T07:56:16.302Z,31.36
2018-06-09T07:57:16.241Z,31.50
2018-06-09T07:58:16.166Z,32.11
2018-06-09T07:59:16.115Z,32.55
2018-06-09T08:00:16.041Z,32.82
2018-06-09T08:01:15.970Z,32.44
2018-06-09T08:02:15.902Z,32.55
2018-06-09T08:03:15.841Z,32.44
2018-06-09T08:04:15.792Z,32.35
2018-06-09T08:05:15.703Z,32.82
2018-06-09T08:06:15.641Z,33.00
2018-06-09T08:07:15.596Z,33.23
2018-06-09T08:08:15.518Z,33.65
2018-06-09T08:09:15.447Z,33.28
2018-06-09T08:10:15.392Z,33.35
2018-06-09T08:11:15.321Z,33.69
2018-06-09T08:12:15.254Z,34.10
2018-06-09T08:13:15.191Z,34.69
2018-06-09T08:14:15.134Z,35.02
2018-06-09T08:15:15.055Z,34.53
2018-06-09T08:16:14.994Z,34.31
2018-06-09T08:17:14.935Z,34.54
2018-06-09T08:18:14.868Z,34.73
2018-06-09T08:19:14.806Z,34.96
2018-06-09T08:20:14.742Z,35.00
2018-06-09T08:21:14.680Z,35.14
2018-06-09T08:22:14.619Z,35.50
2018-06-09T08:23:14.544Z,35.28
2018-06-09T08:24:14.482Z,34.96
2018-06-09T08:25:14.418Z,34.91
2018-06-09T08:26:14.355Z,34.70
2018-06-09T08:27:14.293Z,34.97
2018-06-09T08:28:14.231Z,34.92
2018-06-09T08:29:14.173Z,35.09
2018-06-09T08:30:14.106Z,35.48
2018-06-09T08:31:14.051Z,35.03
2018-06-09T08:32:13.981Z,34.54
2018-06-09T08:33:13.919Z,34.16
2018-06-09T08:34:13.856Z,34.59
2018-06-09T08:35:13.794Z,34.05
2018-06-09T08:36:13.805Z,33.88
2018-06-09T08:37:13.673Z,33.57
2018-06-09T08:38:13.610Z,34.25
2018-06-09T08:39:13.545Z,34.39
2018-06-09T08:40:13.482Z,34.35
2018-06-09T08:41:13.420Z,34.44
2018-06-09T08:42:13.357Z,34.06
2018-06-09T08:43:13.296Z,34.30
2018-06-09T08:44:13.233Z,34.32
2018-06-09T08:45:13.170Z,34.80
2018-06-09T08:46:13.107Z,35.11
2018-06-09T08:47:13.046Z,35.63
2018-06-09T08:48:12.983Z,35.75
2018-06-09T08:49:12.922Z,35.84
2018-06-09T08:50:12.859Z,35.37
2018-06-09T08:51:12.797Z,35.82
2018-06-09T08:52:12.735Z,34.54
2018-06-09T08:53:12.672Z,34.09
2018-06-09T08:54:12.608Z,34.02
2018-06-09T08:55:12.547Z,33.95
2018-06-09T08:56:12.483Z,33.59
2018-06-09T08:57:12.422Z,34.05
2018-06-09T08:58:12.358Z,33.88
2018-06-09T08:59:12.301Z,33.81
2018-06-09T09:00:12.235Z,34.16
2018-06-09T09:01:12.185Z,33.87
2018-06-09T09:02:12.111Z,33.68
2018-06-09T09:03:12.052Z,33.39
2018-06-09T09:04:11.985Z,32.97
2018-06-09T09:05:11.923Z,33.03
2018-06-09T09:06:11.859Z,33.50
2018-06-09T09:07:11.801Z,33.87
2018-06-09T09:08:11.735Z,34.28
2018-06-09T09:09:11.673Z,34.16
2018-06-09T09:10:11.611Z,34.91
2018-06-09T09:11:11.550Z,34.94
2018-06-09T09:12:11.485Z,35.23
2018-06-09T09:13:11.424Z,34.99
2018-06-09T09:14:11.374Z,34.59
2018-06-09T09:15:11.301Z,34.19
2018-06-09T09:16:11.237Z,34.49
2018-06-09T09:17:11.186Z,34.44
2018-06-09T09:18:11.125Z,34.17
2018-06-09T09:19:11.061Z,33.81
2018-06-09T09:20:10.999Z,34.59
2018-06-09T09:21:10.938Z,35.04
2018-06-09T09:22:10.876Z,35.58
2018-06-09T09:23:10.811Z,35.19
2018-06-09T09:24:10.750Z,34.97
2018-06-09T09:25:10.700Z,35.04
2018-06-09T09:26:10.626Z,34.80
2018-06-09T09:27:10.565Z,34.09
2018-06-09T09:28:10.500Z,33.78
2018-06-09T09:29:10.437Z,33.82
2018-06-09T09:30:10.376Z,33.69
2018-06-09T09:31:10.312Z,34.08
2018-06-09T09:32:10.302Z,34.17
2018-06-09T09:33:10.188Z,33.86
2018-06-09T09:34:10.126Z,33.73
2018-06-09T09:35:10.067Z,33.82
2018-06-09T09:36:10.013Z,33.84
2018-06-09T09:37:09.951Z,33.49
2018-06-09T09:38:09.893Z,33.63
2018-06-09T09:39:09.828Z,34.22
2018-06-09T09:40:09.763Z,33.84
2018-06-09T09:41:09.702Z,34.47
2018-06-09T09:42:09.640Z,34.42
2018-06-09T09:43:09.579Z,34.65
2018-06-09T09:44:09.514Z,34.85
2018-06-09T09:45:09.456Z,34.61
2018-06-09T09:46:09.389Z,35.03
2018-06-09T09:47:09.328Z,34.80
2018-06-09T09:48:09.264Z,34.97
2018-06-09T09:49:09.203Z,35.71
2018-06-09T09:50:09.140Z,35.33
2018-06-09T09:51:09.081Z,35.52
2018-06-09T09:52:09.029Z,35.92
2018-06-09T09:53:08.965Z,35.40
2018-06-09T09:54:08.907Z,35.11
2018-06-09T09:55:08.841Z,34.69
2018-06-09T09:56:08.779Z,34.77
2018-06-09T09:57:08.715Z,34.69
2018-06-09T09:58:08.653Z,34.61
2018-06-09T09:59:08.592Z,34.69
2018-06-09T10:00:08.529Z,34.47
2018-06-09T10:01:08.466Z,34.80
2018-06-09T10:02:08.404Z,34.92
2018-06-09T10:03:08.388Z,34.53
2018-06-09T10:04:08.291Z,34.81
2018-06-09T10:05:08.229Z,35.02
2018-06-09T10:06:08.171Z,35.26
2018-06-09T10:07:08.105Z,35.40
2018-06-09T10:08:08.042Z,35.33
2018-06-09T10:09:07.980Z,34.89
2018-06-09T10:10:07.918Z,35.06
2018-06-09T10:11:07.855Z,34.53
2018-06-09T10:12:07.792Z,34.62
2018-06-09T10:13:07.730Z,34.12
2018-06-09T10:14:07.667Z,34.02
2018-06-09T10:15:07.606Z,33.61
2018-06-09T10:16:07.542Z,33.26
2018-06-09T10:17:07.481Z,32.96
2018-06-09T10:18:07.419Z,32.81
2018-06-09T10:19:07.357Z,33.12
2018-06-09T10:20:07.293Z,33.35
2018-06-09T10:21:07.231Z,33.29
2018-06-09T10:22:07.170Z,33.28
2018-06-09T10:23:07.093Z,33.00
2018-06-09T10:24:07.032Z,32.52
2018-06-09T10:25:06.969Z,32.26
2018-06-09T10:26:06.907Z,32.25
2018-06-09T10:27:06.843Z,32.32
2018-06-09T10:28:06.775Z,32.28
2018-06-09T10:29:06.707Z,32.23
2018-06-09T10:30:06.645Z,32.45
2018-06-09T10:31:06.582Z,32.82
2018-06-09T10:32:06.520Z,33.06
2018-06-09T10:33:06.445Z,33.14
2018-06-09T10:34:06.383Z,33.03
2018-06-09T10:35:06.320Z,32.97
2018-06-09T10:36:06.258Z,32.63
2018-06-09T10:37:06.234Z,32.43
2018-06-09T10:38:06.120Z,32.18
2018-06-09T10:39:06.058Z,32.37
2018-06-09T10:40:05.995Z,32.38
2018-06-09T10:41:05.921Z,32.66
2018-06-09T10:42:05.858Z,32.94
2018-06-09T10:43:05.795Z,32.88
2018-06-09T10:44:05.733Z,32.69
2018-06-09T10:45:05.659Z,32.89
2018-06-09T10:46:05.596Z,33.41
2018-06-09T10:47:05.535Z,33.91
2018-06-09T10:48:05.471Z,34.19
2018-06-09T10:49:05.409Z,35.04
2018-06-09T10:50:05.346Z,35.70
2018-06-09T10:51:05.272Z,36.12
2018-06-09T10:52:05.209Z,35.96
2018-06-09T10:53:05.151Z,36.05
2018-06-09T10:54:05.085Z,36.17
2018-06-09T10:55:05.022Z,35.21
2018-06-09T10:56:04.960Z,35.00
2018-06-09T10:57:04.897Z,34.89
2018-06-09T10:58:04.836Z,35.11
2018-06-09T10:59:04.772Z,35.74
2018-06-09T11:00:04.711Z,36.03
2018-06-09T11:01:04.651Z,36.25
2018-06-09T11:02:04.587Z,36.43
2018-06-09T11:03:04.522Z,36.01
2018-06-09T11:04:04.464Z,35.94
2018-06-09T11:05:04.404Z,36.13
2018-06-09T11:06:04.337Z,35.70
2018-06-09T11:07:04.273Z,35.50
2018-06-09T11:08:04.212Z,35.92
2018-06-09T11:09:04.150Z,36.41
2018-06-09T11:10:04.106Z,36.59
2018-06-09T11:11:04.038Z,36.43
2018-06-09T11:12:03.974Z,36.90
2018-06-09T11:13:03.912Z,37.17
2018-06-09T11:14:03.849Z,37.25
2018-06-09T11:15:03.786Z,36.98
2018-06-09T11:16:03.727Z,37.09
2018-06-09T11:17:03.663Z,37.22
2018-06-09T11:18:03.612Z,37.05
2018-06-09T11:19:03.549Z,37.51
2018-06-09T11:20:03.488Z,37.37
2018-06-09T11:21:03.430Z,37.40
2018-06-09T11:22:03.363Z,37.17
2018-06-09T11:23:03.313Z,37.44
2018-06-09T11:24:03.250Z,37.60
2018-06-09T11:25:03.190Z,37.81
2018-06-09T11:26:03.125Z,37.18
2018-06-09T11:27:03.063Z,37.28
2018-06-09T11:28:03.001Z,37.56
2018-06-09T11:29:02.950Z,37.59
2018-06-09T11:30:02.889Z,36.85
2018-06-09T11:31:02.827Z,36.90
2018-06-09T11:32:02.764Z,37.18
2018-06-09T11:33:02.703Z,37.64
2018-06-09T11:34:02.656Z,37.51
2018-06-09T11:35:02.590Z,37.28
2018-06-09T11:36:02.541Z,37.15
2018-06-09T11:37:02.465Z,37.15
2018-06-09T11:38:02.415Z,37.91
2018-06-09T11:39:02.352Z,37.51
2018-06-09T11:40:02.291Z,37.57
2018-06-09T11:41:02.241Z,36.16
2018-06-09T11:42:02.165Z,35.50
2018-06-09T11:43:02.115Z,35.53
2018-06-09T11:44:02.053Z,35.41
2018-06-09T11:45:01.991Z,35.03
2018-06-09T11:46:01.927Z,35.56
2018-06-09T11:47:01.916Z,35.68
2018-06-09T11:48:01.804Z,36.31
2018-06-09T11:49:01.753Z,37.02
2018-06-09T11:50:01.692Z,37.17
2018-06-09T11:51:01.628Z,37.21
2018-06-09T11:52:01.567Z,37.27
2018-06-09T11:53:01.503Z,37.89
2018-06-09T11:54:01.442Z,38.34
2018-06-09T11:55:01.392Z,39.04
2018-06-09T11:56:01.328Z,39.14
2018-06-09T11:57:01.268Z,38.41
2018-06-09T11:58:01.204Z,37.88
2018-06-09T11:59:01.142Z,37.86
2018-06-09T12:00:01.079Z,37.69
2018-06-09T12:01:01.029Z,36.65
2018-06-09T12:02:00.967Z,36.66
2018-06-09T12:03:00.904Z,36.71
2018-06-09T12:04:00.846Z,37.51
2018-06-09T12:05:00.779Z,38.25
2018-06-09T12:06:00.733Z,37.86
2018-06-09T12:07:00.667Z,37.63
2018-06-09T12:08:00.617Z,37.72
2018-06-09T12:09:00.543Z,37.15
2018-06-09T12:10:00.479Z,36.71
2018-06-09T12:11:00.449Z,36.54
2018-06-09T12:12:00.369Z,36.54
2018-06-09T12:13:00.304Z,36.47
2018-06-09T12:14:00.244Z,35.87
2018-06-09T12:15:00.180Z,35.52
2018-06-09T12:16:00.119Z,36.13
2018-06-09T12:17:00.069Z,35.94
2018-06-09T12:18:00.008Z,36.39
2018-06-09T12:18:59.944Z,36.43
2018-06-09T12:19:59.881Z,36.27
2018-06-09T12:20:59.819Z,36.68
2018-06-09T12:21:59.758Z,36.90
2018-06-09T12:22:59.695Z,37.64
2018-06-09T12:23:59.632Z,38.16
2018-06-09T12:24:59.644Z,38.18
2018-06-09T12:25:59.521Z,38.07
2018-06-09T12:26:59.457Z,38.15
2018-06-09T12:27:59.395Z,38.31
2018-06-09T12:28:59.332Z,37.75
2018-06-09T12:29:59.271Z,37.55
2018-06-09T12:30:59.221Z,37.03
2018-06-09T12:31:59.157Z,37.94
2018-06-09T12:32:59.101Z,37.39
2018-06-09T12:33:59.032Z,37.44
2018-06-09T12:34:58.973Z,37.98
2018-06-09T12:35:58.908Z,36.44
2018-06-09T12:36:58.859Z,35.59
2018-06-09T12:37:58.795Z,36.07
2018-06-09T12:38:58.736Z,36.85
2018-06-09T12:39:58.671Z,37.22
2018-06-09T12:40:58.608Z,36.37
2018-06-09T12:41:58.546Z,35.19
2018-06-09T12:42:58.501Z,35.97
2018-06-09T12:43:58.433Z,35.34
2018-06-09T12:44:58.372Z,34.84
2018-06-09T12:45:58.309Z,34.10
2018-06-09T12:46:58.247Z,33.86
2018-06-09T12:47:58.184Z,33.79
2018-06-09T12:48:58.122Z,33.51
2018-06-09T12:49:58.059Z,32.77
2018-06-09T12:50:57.998Z,32.69
2018-06-09T12:51:57.947Z,32.63